Time;durP1;ratioP1;P1;durP2;ratioP2;P2;SDS_P1;SDS_P2;PMS_P1;PMS_P2;Temp;Humidity;BMP_temperature;BMP_pressure;BME280_temperature;BME280_humidity;BME280_pressure;Samples;Min_cycle;Max_cycle;Signal;HPM_P1;HPM_P2
2023/01/22 00:01:04;;;;;;;16.38;6.60;;;;;;;-4.73;100.00;102757.94;5063833;28;20031;-52
2023/01/22 00:03:29;;;;;;;18.17;6.88;;;;;;;-4.77;100.00;102758.91;5060278;28;20398;-55
2023/01/22 00:05:55;;;;;;;21.98;10.23;;;;;;;-4.78;100.00;102757.19;5059167;28;20029;-53
2023/01/22 00:08:20;;;;;;;18.92;7.03;;;;;;;-4.73;100.00;102759.69;5058907;28;20115;-52
2023/01/22 00:10:50;;;;;;;22.63;8.20;;;;;;;-4.81;100.00;102759.84;5058872;28;20035;-55
2023/01/22 00:13:15;;;;;;;22.15;7.82;;;;;;;-4.92;100.00;102759.28;5059305;28;20737;-54
2023/01/22 00:15:41;;;;;;;25.05;8.77;;;;;;;-4.94;100.00;102758.44;5055003;28;20104;-54
2023/01/22 00:18:06;;;;;;;19.45;6.57;;;;;;;-4.99;100.00;102753.38;5059254;28;20056;-54
2023/01/22 00:20:32;;;;;;;23.10;7.93;;;;;;;-5.02;100.00;102752.59;5060391;28;20047;-54
2023/01/22 00:22:57;;;;;;;14.13;7.32;;;;;;;-5.01;100.00;102759.47;5054554;28;20025;-54
2023/01/22 00:25:23;;;;;;;15.85;6.50;;;;;;;-4.98;100.00;102752.50;5064344;28;20120;-54
2023/01/22 00:27:48;;;;;;;17.33;8.05;;;;;;;-4.95;100.00;102757.59;5065424;28;20032;-55
2023/01/22 00:30:14;;;;;;;16.17;6.88;;;;;;;-4.98;100.00;102755.09;5066318;28;20039;-53
2023/01/22 00:32:39;;;;;;;17.20;6.72;;;;;;;-4.95;100.00;102749.00;5062452;28;20029;-55
2023/01/22 00:35:06;;;;;;;18.88;7.32;;;;;;;-4.90;100.00;102745.41;5065979;28;20037;-56
2023/01/22 00:37:31;;;;;;;14.43;6.28;;;;;;;-4.97;100.00;102745.59;5059105;28;20029;-53
2023/01/22 00:39:56;;;;;;;17.00;6.85;;;;;;;-4.99;100.00;102745.59;5055892;28;20070;-56
2023/01/22 00:42:21;;;;;;;21.42;8.20;;;;;;;-5.08;100.00;102745.84;5056351;28;20105;-54
2023/01/22 00:44:47;;;;;;;19.58;7.55;;;;;;;-5.21;100.00;102746.97;5066531;28;20071;-55
2023/01/22 00:47:12;;;;;;;30.05;9.32;;;;;;;-5.24;100.00;102742.75;5061258;28;20120;-53
2023/01/22 00:49:37;;;;;;;16.73;7.63;;;;;;;-5.21;100.00;102737.50;5064576;28;20266;-54
2023/01/22 00:52:03;;;;;;;22.50;8.27;;;;;;;-5.24;100.00;102740.16;5056264;28;20081;-53
2023/01/22 00:54:29;;;;;;;12.75;6.35;;;;;;;-5.23;100.00;102738.41;5067505;28;20060;-57
2023/01/22 00:56:54;;;;;;;16.48;7.55;;;;;;;-5.17;100.00;102743.44;5055030;28;20039;-52
2023/01/22 00:59:19;;;;;;;21.38;6.30;;;;;;;-5.09;100.00;102744.97;5062674;28;20102;-56
2023/01/22 01:01:45;;;;;;;11.60;6.68;;;;;;;-5.09;100.00;102744.97;5061058;28;20057;-53
2023/01/22 01:04:10;;;;;;;18.83;7.22;;;;;;;-5.15;100.00;102746.84;5062057;28;20090;-55
2023/01/22 01:06:35;;;;;;;14.57;7.78;;;;;;;-5.20;100.00;102744.34;5065691;28;20180;-51
2023/01/22 01:09:01;;;;;;;15.00;4.38;;;;;;;-5.29;100.00;102744.56;5068185;28;20478;-55
2023/01/22 01:11:28;;;;;;;13.68;5.40;;;;;;;-5.35;100.00;102744.69;5063364;28;20032;-54
2023/01/22 01:13:53;;;;;;;18.70;6.30;;;;;;;-5.40;100.00;102742.19;5065722;28;20044;-55
2023/01/22 01:16:30;;;;;;;16.25;7.25;;;;;;;-5.37;100.00;102746.44;5063559;28;20039;-53
2023/01/22 01:19:01;;;;;;;17.35;7.60;;;;;;;-5.38;100.00;102742.19;5063223;28;20097;-54
2023/01/22 01:21:27;;;;;;;19.80;6.75;;;;;;;-5.40;100.00;102742.19;5067180;28;20052;-54
2023/01/22 01:23:54;;;;;;;14.32;6.70;;;;;;;-5.43;100.00;102741.41;5055410;28;20033;-56
2023/01/22 01:26:20;;;;;;;12.55;5.80;;;;;;;-5.51;100.00;102733.81;5053138;28;20101;-55
2023/01/22 01:28:46;;;;;;;21.65;6.97;;;;;;;-5.55;100.00;102737.34;5056423;28;20029;-55
2023/01/22 01:31:14;;;;;;;24.38;9.20;;;;;;;-5.54;100.00;102733.91;5051524;28;20397;-54
2023/01/22 01:33:40;;;;;;;18.60;7.72;;;;;;;-5.53;100.00;102735.59;5057605;28;20568;-55
2023/01/22 01:36:10;;;;;;;29.25;7.47;;;;;;;-5.53;100.00;102741.59;5059501;28;20057;-56
2023/01/22 01:38:35;;;;;;;17.95;7.10;;;;;;;-5.53;100.00;102746.78;5060705;28;20029;-56
2023/01/22 01:41:00;;;;;;;15.27;7.68;;;;;;;-5.52;100.00;102750.22;5053742;28;20024;-56
2023/01/22 01:43:27;;;;;;;17.48;6.80;;;;;;;-5.54;100.00;102750.25;5058893;28;20033;-54
2023/01/22 01:45:54;;;;;;;20.92;7.55;;;;;;;-5.58;100.00;102743.44;5054625;28;20056;-56
2023/01/22 01:48:25;;;;;;;13.30;7.57;;;;;;;-5.61;100.00;102742.66;5056883;28;20033;-54
2023/01/22 01:50:56;;;;;;;;;;;;;;;-5.59;100.00;102744.31;5066645;28;20390;-55
2023/01/22 01:53:21;;;;;;;11.27;5.45;;;;;;;-5.74;100.00;102742.91;5063190;28;19917;-54
2023/01/22 01:55:47;;;;;;;18.05;7.00;;;;;;;-5.81;100.00;102746.47;5077528;28;20419;-56
2023/01/22 01:58:20;;;;;;;14.85;6.68;;;;;;;-5.80;100.00;102753.38;5069143;28;20039;-55
2023/01/22 02:00:46;;;;;;;18.00;5.57;;;;;;;-5.83;100.00;102757.75;5067406;28;20120;-52
2023/01/22 02:03:12;;;;;;;13.13;5.68;;;;;;;-5.92;100.00;102744.09;5071426;28;20024;-56
2023/01/22 02:05:37;;;;;;;15.80;6.13;;;;;;;-5.90;100.00;102746.66;5061043;28;20093;-53
2023/01/22 02:08:06;;;;;;;13.82;5.88;;;;;;;-5.92;100.00;102749.28;5052416;28;20025;-57
2023/01/22 02:10:31;;;;;;;10.45;5.05;;;;;;;-5.93;100.00;102746.72;5055649;28;20029;-54
2023/01/22 02:13:02;;;;;;;13.10;4.88;;;;;;;-5.94;100.00;102750.22;5063151;28;20036;-53
2023/01/22 02:15:27;;;;;;;;;;;;;;;-5.85;100.00;102751.75;5067674;28;20039;-55
2023/01/22 02:17:53;;;;;;;18.10;6.07;;;;;;;-5.91;100.00;102750.16;5066863;28;20353;-55
2023/01/22 02:20:18;;;;;;;12.68;5.90;;;;;;;-5.87;100.00;102753.50;5067717;28;20028;-53
2023/01/22 02:22:43;;;;;;;14.32;6.68;;;;;;;-5.85;100.00;102755.19;5072303;28;20036;-53
2023/01/22 02:25:09;;;;;;;11.85;5.32;;;;;;;-5.90;100.00;102753.56;5065926;28;20035;-55
2023/01/22 02:27:34;;;;;;;15.45;6.20;;;;;;;-5.98;100.00;102746.84;5063736;28;20051;-55
2023/01/22 02:30:00;;;;;;;18.75;6.25;;;;;;;-6.05;100.00;102749.56;5060681;28;20037;-55
2023/01/22 02:32:27;;;;;;;17.50;5.78;;;;;;;-6.00;100.00;102758.94;5061325;28;20409;-56
2023/01/22 02:34:53;;;;;;;16.38;6.90;;;;;;;-5.96;100.00;102757.16;5063203;28;20031;-56
2023/01/22 02:37:18;;;;;;;14.80;5.80;;;;;;;-5.91;100.00;102747.56;5056165;28;20051;-52
2023/01/22 02:39:44;;;;;;;21.33;8.32;;;;;;;-5.97;100.00;102747.69;5074284;28;20103;-56
2023/01/22 02:42:09;;;;;;;33.90;10.75;;;;;;;-6.00;100.00;102746.03;5067268;28;20029;-56
2023/01/22 02:44:35;;;;;;;43.60;12.30;;;;;;;-5.98;100.00;102744.25;5058926;28;20040;-52
2023/01/22 02:47:00;;;;;;;54.58;15.70;;;;;;;-5.96;100.00;102742.50;5070180;28;20064;-53
2023/01/22 02:49:26;;;;;;;64.03;18.65;;;;;;;-5.92;100.00;102741.53;5067515;28;20494;-54
2023/01/22 02:51:51;;;;;;;78.60;21.88;;;;;;;-5.94;100.00;102748.50;5062681;28;20055;-52
2023/01/22 02:54:16;;;;;;;59.10;16.35;;;;;;;-5.95;100.00;102746.78;5063382;28;20056;-50
2023/01/22 02:56:42;;;;;;;43.92;16.10;;;;;;;-6.03;100.00;102764.16;5067935;28;20032;-56
2023/01/22 02:59:07;;;;;;;40.22;12.55;;;;;;;-6.07;100.00;102767.66;5069452;28;20028;-53
2023/01/22 03:01:33;;;;;;;48.30;12.45;;;;;;;-6.06;100.00;102769.41;5072984;28;20090;-56
2023/01/22 03:04:09;;;;;;;41.20;12.40;;;;;;;-6.04;100.00;102765.06;5060620;28;20037;-54
2023/01/22 03:06:37;;;;;;;39.72;11.90;;;;;;;-6.06;100.00;102769.41;5072060;28;20036;-52
2023/01/22 03:09:03;;;;;;;33.97;12.18;;;;;;;-6.03;100.00;102766.75;5071353;28;20028;-53
2023/01/22 03:11:29;;;;;;;38.75;11.27;;;;;;;-6.07;100.00;102762.50;5060582;28;20495;-54
2023/01/22 03:22:09;;;;;;;23.90;6.90;;;;;;;-6.16;100.00;102766.13;5068688;28;20044;-55
2023/01/22 03:24:35;;;;;;;19.00;6.15;;;;;;;-6.20;100.00;102766.19;5065844;28;20020;-52
2023/01/22 03:27:01;;;;;;;16.58;6.40;;;;;;;-6.26;100.00;102767.16;5059444;28;20041;-51
2023/01/22 03:29:27;;;;;;;23.20;6.72;;;;;;;-6.28;100.00;102762.91;5068736;28;20024;-53
2023/01/22 03:31:52;;;;;;;14.80;5.35;;;;;;;-6.24;100.00;102764.56;5067486;28;20091;-54
2023/01/22 03:34:19;;;;;;;19.35;7.38;;;;;;;-6.26;100.00;102764.56;5059237;28;20037;-53
2023/01/22 03:36:45;;;;;;;16.50;6.75;;;;;;;-6.22;100.00;102753.31;5073406;28;20294;-56
2023/01/22 03:39:11;;;;;;;16.27;5.75;;;;;;;-6.23;100.00;102764.50;5071329;28;20042;-54
2023/01/22 03:41:37;;;;;;;17.23;6.78;;;;;;;-6.22;100.00;102748.16;5067900;28;20051;-55
2023/01/22 03:44:03;;;;;;;11.95;4.57;;;;;;;-6.27;100.00;102746.50;5070774;28;20028;-55
2023/01/22 03:46:29;;;;;;;13.90;5.63;;;;;;;-6.33;100.00;102741.47;5066222;28;20040;-50
2023/01/22 03:48:54;;;;;;;11.82;5.22;;;;;;;-6.34;100.00;102732.03;5058386;28;20073;-56
2023/01/22 03:51:20;;;;;;;15.70;5.80;;;;;;;-6.35;100.00;102733.75;5054965;28;20056;-55
2023/01/22 03:53:46;;;;;;;13.85;6.53;;;;;;;-6.31;100.00;102730.25;5078317;28;20031;-55
2023/01/22 03:56:17;;;;;;;12.85;6.13;;;;;;;-6.37;100.00;102738.94;5060715;28;20029;-53
2023/01/22 03:58:43;;;;;;;;;;;;;;;-6.39;100.00;102732.94;5069911;28;20037;-56
2023/01/22 04:01:11;;;;;;;16.23;6.47;;;;;;;-6.52;100.00;102734.03;5063440;28;19927;-53
2023/01/22 04:03:37;;;;;;;12.43;4.47;;;;;;;-6.58;100.00;102741.91;5057898;28;20442;-52
2023/01/22 04:06:04;;;;;;;12.20;5.43;;;;;;;-6.64;100.00;102744.56;5059522;28;20120;-54
2023/01/22 04:08:32;;;;;;;13.43;5.30;;;;;;;-6.65;100.00;102750.63;5065483;28;20083;-54
2023/01/22 04:10:58;;;;;;;13.10;5.55;;;;;;;-6.72;100.00;102751.59;5065990;28;20029;-53
2023/01/22 04:13:26;;;;;;;7.97;3.35;;;;;;;-6.77;100.00;102756.81;5068046;28;20056;-52
2023/01/22 04:15:52;;;;;;;12.15;3.95;;;;;;;-6.80;100.00;102756.88;5069257;28;20031;-53
2023/01/22 04:18:17;;;;;;;12.30;4.43;;;;;;;-6.79;100.00;102753.38;5067255;28;20029;-56
2023/01/22 04:20:44;;;;;;;12.27;3.95;;;;;;;-6.81;100.00;102752.59;5062528;28;20029;-53
2023/01/22 04:23:10;;;;;;;8.93;3.05;;;;;;;-6.87;100.00;102750.94;5066574;28;20029;-54
2023/01/22 04:25:36;;;;;;;8.57;3.30;;;;;;;-6.92;100.00;102750.16;5077575;28;20584;-53
2023/01/22 04:28:01;;;;;;;10.10;5.13;;;;;;;-6.98;100.00;102758.00;5069070;28;20489;-56
2023/01/22 04:30:27;;;;;;;15.75;4.15;;;;;;;-6.91;100.00;102763.91;5064908;28;20131;-56
2023/01/22 04:32:52;;;;;;;13.27;4.47;;;;;;;-6.84;100.00;102763.81;5066183;28;20040;-54
2023/01/22 04:35:18;;;;;;;12.48;3.83;;;;;;;-6.83;100.00;102755.19;5065118;28;20689;-53
2023/01/22 04:37:44;;;;;;;10.30;4.37;;;;;;;-6.83;100.00;102757.75;5068287;28;20457;-52
2023/01/22 04:40:10;;;;;;;19.67;4.87;;;;;;;-6.84;100.00;102761.22;5065916;28;20705;-52
2023/01/22 04:42:35;;;;;;;15.27;5.60;;;;;;;-6.88;100.00;102767.28;5076924;28;20507;-53
2023/01/22 04:45:01;;;;;;;15.52;4.82;;;;;;;-6.89;100.00;102757.88;5073968;28;20044;-52
2023/01/22 04:47:26;;;;;;;13.48;4.40;;;;;;;-6.90;100.00;102757.88;5070251;28;20090;-56
2023/01/22 04:49:52;;;;;;;8.38;4.22;;;;;;;-6.88;100.00;102753.56;5061098;28;20433;-56
2023/01/22 04:52:17;;;;;;;17.33;4.90;;;;;;;-6.91;100.00;102764.78;5068635;28;20063;-52
2023/01/22 04:54:43;;;;;;;18.23;5.22;;;;;;;-6.98;100.00;102762.31;5062069;28;20099;-53
2023/01/22 04:57:09;;;;;;;13.15;4.07;;;;;;;-7.04;100.00;102768.41;5065971;28;20090;-53
2023/01/22 04:59:34;;;;;;;9.85;3.38;;;;;;;-7.15;100.00;102770.25;5075260;28;20035;-52
2023/01/22 05:02:00;;;;;;;11.18;3.75;;;;;;;-7.13;100.00;102768.50;5066372;28;20419;-52
2023/01/22 05:04:25;;;;;;;9.13;4.47;;;;;;;-7.08;100.00;102767.56;5081803;28;20031;-53
2023/01/22 05:06:50;;;;;;;11.47;4.17;;;;;;;-7.02;100.00;102771.81;5077603;28;20074;-56
2023/01/22 05:09:16;;;;;;;10.77;4.33;;;;;;;-7.02;100.00;102774.41;5068617;28;20078;-50
2023/01/22 05:11:41;;;;;;;12.10;3.50;;;;;;;-7.04;100.00;102768.41;5063960;28;20406;-53
2023/01/22 05:14:07;;;;;;;6.07;3.77;;;;;;;-7.12;100.00;102767.66;5067734;28;20060;-56
2023/01/22 05:16:32;;;;;;;7.00;4.03;;;;;;;-7.24;100.00;102759.19;5057968;28;20036;-52
2023/01/22 05:18:57;;;;;;;10.20;4.13;;;;;;;-7.22;100.00;102750.63;5059105;28;20102;-53
2023/01/22 05:21:23;;;;;;;13.93;4.32;;;;;;;-7.21;100.00;102749.72;5072391;28;20384;-54
2023/01/22 05:23:48;;;;;;;16.35;5.38;;;;;;;-7.21;100.00;102752.31;5063097;28;20077;-53
2023/01/22 05:26:13;;;;;;;12.97;4.33;;;;;;;-7.24;100.00;102748.88;5072358;28;20487;-50
2023/01/22 05:28:39;;;;;;;10.43;4.27;;;;;;;-7.31;100.00;102754.16;5074524;28;20028;-55
2023/01/22 05:31:04;;;;;;;12.40;3.57;;;;;;;-7.39;100.00;102750.81;5065842;28;20118;-52
2023/01/22 05:33:30;;;;;;;11.90;4.20;;;;;;;-7.39;100.00;102755.97;5069464;28;20038;-50
2023/01/22 05:35:57;;;;;;;14.20;5.47;;;;;;;-7.40;100.00;102767.19;5068726;28;20084;-54
2023/01/22 05:38:23;;;;;;;10.27;3.67;;;;;;;-7.41;100.00;102765.44;5071018;28;20083;-52
2023/01/22 05:40:48;;;;;;;6.93;2.93;;;;;;;-7.42;100.00;102767.19;5068207;28;20478;-55
2023/01/22 05:43:13;;;;;;;9.70;4.30;;;;;;;-7.39;100.00;102772.28;5060896;28;20029;-50
2023/01/22 05:45:39;;;;;;;11.30;4.13;;;;;;;-7.36;100.00;102773.97;5057303;28;20098;-55
2023/01/22 05:48:04;;;;;;;6.53;2.83;;;;;;;-7.35;100.00;102773.97;5059181;28;20060;-54
2023/01/22 05:50:30;;;;;;;10.65;3.65;;;;;;;-7.33;100.00;102771.34;5064314;28;20057;-52
2023/01/22 05:52:55;;;;;;;15.10;4.77;;;;;;;-7.35;100.00;102767.97;5068821;28;20067;-53
2023/01/22 05:55:20;;;;;;;10.13;3.77;;;;;;;-7.39;100.00;102766.28;5065425;28;20064;-54
2023/01/22 05:57:46;;;;;;;12.80;4.40;;;;;;;-7.41;100.00;102768.88;5067035;28;20025;-56
2023/01/22 06:00:12;;;;;;;6.00;2.50;;;;;;;-7.42;100.00;102759.44;5058703;28;20032;-52
2023/01/22 06:02:37;;;;;;;7.20;2.97;;;;;;;-7.41;100.00;102755.13;5063277;28;20031;-55
2023/01/22 06:05:03;;;;;;;9.60;4.25;;;;;;;-7.41;100.00;102756.00;5069492;28;20033;-52
2023/01/22 06:07:31;;;;;;;8.67;3.13;;;;;;;-7.41;100.00;102755.13;5076205;28;20070;-53
2023/01/22 06:09:56;;;;;;;9.77;3.63;;;;;;;-7.42;100.00;102749.13;5058570;28;20036;-55
2023/01/22 06:12:22;;;;;;;14.02;4.43;;;;;;;-7.44;100.00;102755.19;5072142;28;20037;-54
2023/01/22 06:14:47;;;;;;;6.43;2.77;;;;;;;-7.46;100.00;102758.66;5061651;28;20389;-55
2023/01/22 06:17:13;;;;;;;11.30;3.47;;;;;;;-7.46;100.00;102761.22;5062158;28;20029;-53
2023/01/22 06:19:38;;;;;;;8.17;3.53;;;;;;;-7.48;100.00;102762.97;5062666;28;20025;-54
2023/01/22 06:22:04;;;;;;;13.48;3.13;;;;;;;-7.48;100.00;102768.13;5067274;28;20060;-54
2023/01/22 06:24:29;;;;;;;9.85;4.05;;;;;;;-7.50;100.00;102769.00;5068215;28;20393;-53
2023/01/22 06:26:55;;;;;;;9.73;2.75;;;;;;;-7.50;100.00;102767.28;5065103;28;20040;-54
2023/01/22 06:29:20;;;;;;;8.02;2.63;;;;;;;-7.54;100.00;102768.16;5070220;28;20069;-52
2023/01/22 06:31:46;;;;;;;13.63;4.97;;;;;;;-7.63;100.00;102767.47;5067507;28;20032;-51
2023/01/22 06:34:11;;;;;;;7.87;3.53;;;;;;;-7.63;100.00;102760.56;5057416;28;20029;-52
2023/01/22 06:36:36;;;;;;;14.23;4.53;;;;;;;-7.57;100.00;102757.91;5062185;28;20435;-54
2023/01/22 06:39:02;;;;;;;11.73;3.47;;;;;;;-7.54;100.00;102769.91;5068967;28;20081;-53
2023/01/22 06:41:27;;;;;;;17.27;5.00;;;;;;;-7.52;100.00;102765.59;5060380;28;20035;-54
2023/01/22 06:43:53;;;;;;;8.57;3.77;;;;;;;-7.51;100.00;102769.84;5069343;28;20016;-52
2023/01/22 06:46:18;;;;;;;11.60;3.07;;;;;;;-7.57;100.00;102763.06;5069318;28;20070;-56
2023/01/22 06:48:45;;;;;;;11.77;3.20;;;;;;;-7.64;100.00;102756.31;5063160;28;20140;-55
2023/01/22 06:51:10;;;;;;;7.40;2.93;;;;;;;-7.64;100.00;102750.28;5064147;28;20055;-55
2023/01/22 06:53:36;;;;;;;11.13;4.27;;;;;;;-7.64;100.00;102752.84;5067112;28;20028;-53
2023/01/22 06:56:02;;;;;;;8.67;4.20;;;;;;;-7.60;100.00;102749.38;5062084;28;20025;-54
2023/01/22 06:58:27;;;;;;;11.17;3.03;;;;;;;-7.59;100.00;102745.91;5062458;28;20043;-55
2023/01/22 07:00:52;;;;;;;5.77;3.97;;;;;;;-7.60;100.00;102750.22;5061822;28;20415;-55
2023/01/22 07:03:18;;;;;;;7.73;3.27;;;;;;;-7.65;100.00;102754.56;5055594;28;20032;-51
2023/01/22 07:05:43;;;;;;;4.07;2.17;;;;;;;-7.72;100.00;102763.25;5062595;28;20037;-52
2023/01/22 07:08:14;;;;;;;14.77;4.13;;;;;;;-7.77;100.00;102755.59;5067830;28;20061;-53
2023/01/22 07:10:39;;;;;;;11.35;4.38;;;;;;;-7.73;100.00;102758.97;5058340;28;20441;-52
2023/01/22 07:13:06;;;;;;;11.20;3.77;;;;;;;-7.68;100.00;102758.03;5074773;28;20032;-52
2023/01/22 07:15:32;;;;;;;10.40;3.93;;;;;;;-7.62;100.00;102751.13;5064191;28;20458;-53
2023/01/22 07:17:57;;;;;;;12.53;3.30;;;;;;;-7.61;100.00;102756.25;5067043;28;20058;-51
2023/01/22 07:20:23;;;;;;;6.70;2.87;;;;;;;-7.58;100.00;102751.06;5061606;28;20503;-53
2023/01/22 07:22:50;;;;;;;6.27;2.67;;;;;;;-7.55;100.00;102758.75;5064060;28;20021;-55
2023/01/22 07:25:17;;;;;;;11.37;3.60;;;;;;;-7.55;100.00;102755.31;5057303;28;20437;-56
2023/01/22 07:27:42;;;;;;;8.03;4.07;;;;;;;-7.61;100.00;102760.56;5062788;28;20021;-51
2023/01/22 07:30:08;;;;;;;7.13;2.63;;;;;;;-7.63;100.00;102772.59;5060614;28;20086;-51
2023/01/22 07:32:34;;;;;;;10.03;4.07;;;;;;;-7.69;100.00;102764.06;5068173;28;20020;-51
2023/01/22 07:35:00;;;;;;;8.70;3.30;;;;;;;-7.66;100.00;102760.63;5060988;28;20129;-55
2023/01/22 07:37:25;;;;;;;10.87;3.40;;;;;;;-7.62;100.00;102764.84;5057851;28;20051;-51
2023/01/22 07:39:51;;;;;;;6.93;2.60;;;;;;;-7.59;100.00;102761.38;5060587;28;20103;-56
2023/01/22 07:42:16;;;;;;;8.17;3.40;;;;;;;-7.58;100.00;102763.09;5065077;28;20025;-56
2023/01/22 07:44:41;;;;;;;9.53;2.90;;;;;;;-7.61;100.00;102768.28;5069699;28;20071;-54
2023/01/22 07:47:07;;;;;;;8.80;3.47;;;;;;;-7.64;100.00;102770.88;5074646;28;20062;-55
2023/01/22 07:49:33;;;;;;;12.27;3.73;;;;;;;-7.65;100.00;102776.91;5063848;28;20071;-52
2023/01/22 07:51:59;;;;;;;10.37;3.27;;;;;;;-7.70;100.00;102772.66;5054968;28;20028;-55
2023/01/22 07:54:24;;;;;;;14.13;4.30;;;;;;;-7.72;100.00;102778.69;5070604;28;20021;-53
2023/01/22 07:56:49;;;;;;;8.63;2.23;;;;;;;-7.73;100.00;102792.47;5068364;28;20123;-56
2023/01/22 07:59:15;;;;;;;9.00;3.50;;;;;;;-7.72;100.00;102789.88;5063349;28;20281;-55
2023/01/22 08:01:40;;;;;;;9.20;2.70;;;;;;;-7.72;100.00;102789.00;5063179;28;20047;-52
2023/01/22 08:04:05;;;;;;;7.70;3.13;;;;;;;-7.76;100.00;102795.91;5058150;28;20025;-53
2023/01/22 08:06:31;;;;;;;6.37;2.13;;;;;;;-7.79;100.00;102782.25;5064946;28;20676;-52
2023/01/22 08:08:58;;;;;;;7.03;3.07;;;;;;;-7.73;100.00;102788.16;5061729;28;20035;-51
2023/01/22 08:11:24;;;;;;;12.97;3.67;;;;;;;-7.62;100.00;102776.88;5055920;28;20032;-55
2023/01/22 08:13:49;;;;;;;9.73;3.40;;;;;;;-7.56;100.00;102798.28;5057050;28;20111;-54
2023/01/22 08:16:15;;;;;;;4.20;2.57;;;;;;;-7.57;100.00;102798.28;5057905;28;20434;-56
2023/01/22 08:18:40;;;;;;;14.63;3.20;;;;;;;-7.62;100.00;102800.06;5060561;28;20040;-54
2023/01/22 08:21:05;;;;;;;8.70;2.50;;;;;;;-7.62;100.00;102810.38;5070733;28;20024;-52
2023/01/22 08:23:31;;;;;;;5.20;2.10;;;;;;;-7.57;100.00;102808.59;5070248;28;20032;-53
2023/01/22 08:26:02;;;;;;;18.53;3.00;;;;;;;-7.51;100.00;102809.38;5057347;28;20414;-53
2023/01/22 08:28:27;;;;;;;4.97;2.50;;;;;;;-7.46;100.00;102811.88;5060247;28;20486;-50
2023/01/22 08:31:00;;;;;;;7.23;2.83;;;;;;;-7.42;100.00;102816.16;5063813;28;20074;-53
2023/01/22 08:33:26;;;;;;;5.43;2.00;;;;;;;-7.39;100.00;102823.00;5062456;28;20381;-55
2023/01/22 08:35:52;;;;;;;7.13;2.97;;;;;;;-7.29;100.00;102825.44;5056768;28;20094;-53
2023/01/22 08:38:17;;;;;;;5.97;2.37;;;;;;;-7.25;100.00;102828.84;5065811;28;20037;-56
2023/01/22 08:40:42;;;;;;;7.53;3.13;;;;;;;-7.26;100.00;102832.28;5063421;28;20032;-53
2023/01/22 08:43:08;;;;;;;3.73;2.37;;;;;;;-7.18;100.00;102838.19;5069973;28;20063;-52
2023/01/22 08:45:33;;;;;;;5.43;1.80;;;;;;;-7.06;100.00;102839.78;5064045;28;20035;-52
2023/01/22 08:47:59;;;;;;;8.02;3.85;;;;;;;-6.91;100.00;102847.31;5066842;28;20405;-51
2023/01/22 08:50:25;;;;;;;6.90;2.50;;;;;;;-6.77;100.00;102844.53;5062998;28;20049;-51
2023/01/22 08:52:51;;;;;;;4.55;2.35;;;;;;;-6.61;100.00;102840.00;5063539;28;20037;-53
2023/01/22 08:55:16;;;;;;;7.32;2.45;;;;;;;-6.47;100.00;102843.25;5059469;28;20082;-50
2023/01/22 08:57:41;;;;;;;12.93;2.95;;;;;;;-6.25;100.00;102837.72;5061871;28;20046;-54
2023/01/22 09:00:07;;;;;;;10.88;3.85;;;;;;;-6.07;100.00;102827.06;5050375;28;20029;-53
2023/01/22 09:02:33;;;;;;;6.93;2.88;;;;;;;-5.93;100.00;102834.56;5060336;28;20541;-49
2023/01/22 09:04:58;;;;;;;4.68;2.95;;;;;;;-5.80;100.00;102837.78;5063100;28;20697;-53
2023/01/22 09:07:24;;;;;;;9.40;3.15;;;;;;;-5.68;100.00;102837.53;5062902;28;20047;-50
2023/01/22 09:09:49;;;;;;;10.43;3.53;;;;;;;-5.58;100.00;102839.06;5057164;28;20145;-56
2023/01/22 09:12:14;;;;;;;9.88;3.75;;;;;;;-5.45;100.00;102834.53;5062761;28;20056;-56
2023/01/22 09:14:40;;;;;;;23.23;4.20;;;;;;;-5.29;100.00;102832.50;5065451;28;20486;-51
2023/01/22 09:17:05;;;;;;;7.32;2.88;;;;;;;-5.08;100.00;102836.38;5063171;28;20036;-54
2023/01/22 09:19:30;;;;;;;10.88;3.40;;;;;;;-4.89;100.00;102845.44;5069214;28;20078;-50
2023/01/22 09:21:56;;;;;;;8.25;3.08;;;;;;;-4.78;100.00;102842.59;5073196;28;20040;-53
2023/01/22 09:24:21;;;;;;;14.10;4.25;;;;;;;-4.64;100.00;102850.09;5059252;28;20037;-50
2023/01/22 09:26:46;;;;;;;10.15;3.72;;;;;;;-4.48;100.00;102848.84;5057555;28;20047;-54
2023/01/22 09:29:12;;;;;;;6.93;2.50;;;;;;;-4.32;100.00;102845.88;5057868;28;20039;-53
2023/01/22 09:31:37;;;;;;;6.72;3.15;;;;;;;-4.17;100.00;102841.16;5057347;28;20040;-54
2023/01/22 09:34:03;;;;;;;11.50;3.15;;;;;;;-4.05;100.00;102831.38;5060616;28;20115;-50
2023/01/22 09:36:29;;;;;;;8.93;3.33;;;;;;;-3.97;100.00;102832.06;5058703;28;20044;-50
2023/01/22 09:38:55;;;;;;;7.28;3.28;;;;;;;-3.81;100.00;102837.69;5060142;28;20036;-56
2023/01/22 09:41:34;;;;;;;6.85;3.35;;;;;;;-3.69;100.00;102829.59;5056872;28;20029;-56
2023/01/22 09:44:18;;;;;;;12.32;3.72;;;;;;;-3.56;100.00;102840.47;5052188;28;20033;-53
2023/01/22 09:46:47;;;;;;;7.30;3.25;;;;;;;-3.39;100.00;102840.00;5059280;28;20478;-52
2023/01/22 09:49:32;;;;;;;12.40;4.25;;;;;;;-3.21;100.00;102838.63;5059353;28;20029;-53
2023/01/22 09:51:59;;;;;;;12.73;3.63;;;;;;;-3.07;100.00;102834.75;5059803;28;20075;-52
2023/01/22 09:54:27;;;;;;;8.85;2.42;;;;;;;-2.96;100.00;102844.81;5058492;28;20039;-54
2023/01/22 09:56:55;;;;;;;13.48;4.78;;;;;;;-2.82;100.00;102841.78;5061459;28;20040;-55
2023/01/22 09:59:54;;;;;;;10.77;3.78;;;;;;;-2.61;100.00;102842.88;5062645;28;20036;-56
2023/01/22 10:02:25;;;;;;;9.27;3.85;;;;;;;-2.50;100.00;102843.41;5060004;28;20040;-51
2023/01/22 10:05:13;;;;;;;17.35;4.55;;;;;;;-2.30;100.00;102847.09;5060819;28;20048;-52
2023/01/22 10:07:42;;;;;;;12.40;4.07;;;;;;;-2.12;100.00;102848.25;5059009;28;20431;-50
2023/01/22 10:10:25;;;;;;;10.10;3.47;;;;;;;-1.89;100.00;102852.66;5060520;28;20036;-53
2023/01/22 10:12:56;;;;;;;12.40;3.33;;;;;;;-1.75;100.00;102855.66;5056641;28;20037;-54
2023/01/22 10:15:23;;;;;;;10.60;4.03;;;;;;;-1.59;100.00;102850.78;5038900;28;20024;-52
2023/01/22 10:17:50;;;;;;;7.18;4.47;;;;;;;-1.38;100.00;102846.53;5050049;28;20434;-51
2023/01/22 10:20:17;;;;;;;14.23;5.18;;;;;;;-1.20;100.00;102837.22;5051455;28;20039;-49
2023/01/22 10:22:43;;;;;;;9.88;3.85;;;;;;;-1.05;100.00;102835.81;5046575;28;20444;-51
2023/01/22 10:25:13;;;;;;;10.65;5.13;;;;;;;-0.87;100.00;102840.31;5051465;28;20047;-51
2023/01/22 10:27:39;;;;;;;9.27;4.70;;;;;;;-0.65;100.00;102837.69;5056381;28;20036;-51
2023/01/22 10:30:26;;;;;;;10.32;4.32;;;;;;;-0.43;100.00;102836.84;5055796;28;20028;-49
2023/01/22 10:33:05;;;;;;;12.45;5.45;;;;;;;-0.27;100.00;102843.97;5056808;28;20064;-52
2023/01/22 10:35:31;;;;;;;14.35;4.78;;;;;;;-0.09;100.00;102834.53;5059905;28;20035;-54
2023/01/22 10:37:58;;;;;;;20.95;4.63;;;;;;;0.11;100.00;102825.03;5058258;28;20036;-50
2023/01/22 10:40:23;;;;;;;12.75;5.10;;;;;;;0.31;100.00;102832.00;5062421;28;20017;-51
2023/01/22 10:43:01;;;;;;;16.00;4.80;;;;;;;0.51;100.00;102828.50;5066024;28;20536;-52
2023/01/22 10:45:26;;;;;;;9.60;4.00;;;;;;;0.55;100.00;102817.88;5060414;28;20108;-53
2023/01/22 10:48:10;;;;;;;12.75;5.15;;;;;;;0.67;100.00;102819.06;5061565;28;20041;-55
2023/01/22 10:50:35;;;;;;;11.85;4.25;;;;;;;0.72;100.00;102818.88;5061547;28;20048;-54
2023/01/22 10:53:03;;;;;;;11.70;4.07;;;;;;;0.73;100.00;102816.19;5064691;28;20046;-52
2023/01/22 10:55:32;;;;;;;10.63;4.75;;;;;;;0.85;100.00;102827.84;5062386;28;20024;-53
2023/01/22 10:58:03;;;;;;;10.45;4.95;;;;;;;0.94;100.00;102822.19;5065162;28;20024;-49
2023/01/22 11:00:37;;;;;;;9.37;3.37;;;;;;;1.07;100.00;102825.94;5063107;28;20101;-51
2023/01/22 11:03:21;;;;;;;14.55;4.32;;;;;;;1.17;100.00;102825.50;5065105;28;20494;-52
2023/01/22 11:05:51;;;;;;;9.50;5.25;;;;;;;1.23;100.00;102818.22;5062419;28;20048;-53
2023/01/22 11:08:20;;;;;;;12.85;5.38;;;;;;;1.29;100.00;102831.00;5063517;28;20032;-51
2023/01/22 11:11:00;;;;;;;12.13;4.90;;;;;;;1.36;100.00;102828.94;5061743;28;20451;-52
2023/01/22 11:13:53;;;;;;;9.90;4.65;;;;;;;1.42;100.00;102833.88;5058594;28;20029;-53
2023/01/22 11:16:21;;;;;;;9.02;3.63;;;;;;;1.47;100.00;102833.63;5062487;28;20032;-51
2023/01/22 11:19:11;;;;;;;9.82;4.07;;;;;;;1.54;100.00;102829.81;5064307;28;20116;-51